createdAt,value
2019-03-31T00:00:04.157Z,25.50
2019-03-31T00:01:08.502Z,25.70
2019-03-31T00:02:04.150Z,26.20
2019-03-31T00:03:04.351Z,25.40
2019-03-31T00:04:04.354Z,24.60
2019-03-31T00:05:04.164Z,25.10
2019-03-31T00:06:04.126Z,22.60
2019-03-31T00:07:04.125Z,23.20
2019-03-31T00:08:04.117Z,24.90
2019-03-31T00:09:04.123Z,25.40
2019-03-31T00:10:04.127Z,24.80
2019-03-31T00:11:04.108Z,26.00
2019-03-31T00:12:04.099Z,27.20
2019-03-31T00:13:04.287Z,27.50
2019-03-31T00:14:04.309Z,28.30
2019-03-31T00:15:04.082Z,30.20
2019-03-31T00:16:04.095Z,29.70
2019-03-31T00:17:04.063Z,30.30
2019-03-31T00:18:04.063Z,30.10
2019-03-31T00:19:04.058Z,30.80
2019-03-31T00:20:04.048Z,30.30
2019-03-31T00:21:04.248Z,29.40
2019-03-31T00:22:04.247Z,31.40
2019-03-31T00:23:04.032Z,30.10
2019-03-31T00:24:04.026Z,28.50
2019-03-31T00:25:04.035Z,28.00
2019-03-31T00:26:04.017Z,26.80
2019-03-31T00:27:04.017Z,29.60
2019-03-31T00:28:04.009Z,29.00
2019-03-31T00:29:04.000Z,30.00
2019-03-31T00:30:03.993Z,32.50
2019-03-31T00:31:03.992Z,30.50
2019-03-31T00:32:04.071Z,31.80
2019-03-31T00:33:04.181Z,31.50
2019-03-31T00:34:03.977Z,31.40
2019-03-31T00:35:03.989Z,30.30
2019-03-31T00:36:04.179Z,29.80
2019-03-31T00:37:03.967Z,29.30
2019-03-31T00:38:04.154Z,27.80
2019-03-31T00:39:03.951Z,26.70
2019-03-31T00:40:04.147Z,27.50
2019-03-31T00:41:04.145Z,29.70
2019-03-31T00:42:04.146Z,30.00
2019-03-31T00:43:03.916Z,31.90
2019-03-31T00:44:03.926Z,35.60
2019-03-31T00:45:03.930Z,34.20
2019-03-31T00:46:03.916Z,34.10
2019-03-31T00:47:03.924Z,34.10
2019-03-31T00:48:03.890Z,33.80
2019-03-31T00:49:03.909Z,29.10
2019-03-31T00:50:03.879Z,27.90
2019-03-31T00:51:03.882Z,26.00
2019-03-31T00:52:04.065Z,26.50
2019-03-31T00:53:03.859Z,25.50
2019-03-31T00:54:03.855Z,26.20
2019-03-31T00:55:03.864Z,28.80
2019-03-31T00:56:03.842Z,29.40
2019-03-31T00:57:03.841Z,29.20
2019-03-31T00:58:03.849Z,28.00
2019-03-31T00:59:03.823Z,29.50
2019-03-31T01:00:03.823Z,29.70
2019-03-31T01:01:03.832Z,29.80
2019-03-31T01:02:03.814Z,30.30
2019-03-31T01:03:03.822Z,31.10
2019-03-31T01:04:03.796Z,28.60
2019-03-31T01:05:03.811Z,27.20
2019-03-31T01:06:03.809Z,26.80
2019-03-31T01:07:03.792Z,24.20
2019-03-31T01:08:03.791Z,24.30
2019-03-31T01:09:03.976Z,23.50
2019-03-31T01:10:03.767Z,25.10
2019-03-31T01:11:03.758Z,25.70
2019-03-31T01:12:03.862Z,25.80
2019-03-31T01:13:03.775Z,27.20
2019-03-31T01:14:03.761Z,32.60
2019-03-31T01:15:03.734Z,31.60
2019-03-31T01:16:03.732Z,31.90
2019-03-31T01:17:03.754Z,31.80
2019-03-31T01:18:03.720Z,32.20
2019-03-31T01:19:03.724Z,31.40
2019-03-31T01:20:03.705Z,29.30
2019-03-31T01:21:03.902Z,31.00
2019-03-31T01:22:03.700Z,28.20
2019-03-31T01:23:03.711Z,30.90
2019-03-31T01:24:03.703Z,29.20
2019-03-31T01:25:03.692Z,23.60
2019-03-31T01:26:03.671Z,22.10
2019-03-31T01:27:03.668Z,22.80
2019-03-31T01:28:03.872Z,22.00
2019-03-31T01:29:03.691Z,21.40
2019-03-31T01:30:03.645Z,22.70
2019-03-31T01:31:03.640Z,22.70
2019-03-31T01:32:03.645Z,23.50
2019-03-31T01:33:03.637Z,24.70
2019-03-31T01:34:03.639Z,26.10
2019-03-31T01:35:03.843Z,25.10
2019-03-31T01:36:03.613Z,33.00
2019-03-31T01:37:03.639Z,33.60
2019-03-31T01:38:03.831Z,33.10
2019-03-31T01:39:03.598Z,33.80
2019-03-31T01:40:03.619Z,33.20
2019-03-31T01:41:03.585Z,32.70
2019-03-31T01:42:03.582Z,34.00
2019-03-31T01:43:03.573Z,32.00
2019-03-31T01:44:03.590Z,31.20
2019-03-31T01:45:03.562Z,31.50
2019-03-31T01:46:03.556Z,29.30
2019-03-31T01:47:03.771Z,31.70
2019-03-31T01:48:03.538Z,31.40
2019-03-31T01:49:03.755Z,28.70
2019-03-31T01:50:03.535Z,29.20
2019-03-31T01:51:03.529Z,28.40
2019-03-31T01:52:03.741Z,27.20
2019-03-31T01:53:03.719Z,28.00
2019-03-31T01:54:03.540Z,25.10
2019-03-31T01:55:03.707Z,24.30
2019-03-31T01:56:03.713Z,27.50
2019-03-31T01:57:03.498Z,26.30
2019-03-31T01:58:03.481Z,26.50
2019-03-31T01:59:03.475Z,29.80
2019-03-31T02:00:03.477Z,29.20
2019-03-31T02:01:03.493Z,23.70
2019-03-31T02:02:04.705Z,26.70
2019-03-31T02:03:03.458Z,27.30
2019-03-31T02:04:03.472Z,28.10
2019-03-31T02:05:03.454Z,29.30
2019-03-31T02:06:03.469Z,25.90
2019-03-31T02:07:03.435Z,27.00
2019-03-31T02:08:03.429Z,28.20
2019-03-31T02:09:03.450Z,28.00
2019-03-31T02:10:03.433Z,30.50
2019-03-31T02:11:03.405Z,29.70
2019-03-31T02:12:03.401Z,29.70
2019-03-31T02:13:03.393Z,32.50
2019-03-31T02:14:03.416Z,27.30
2019-03-31T02:15:03.387Z,28.60
2019-03-31T02:16:03.380Z,28.90
2019-03-31T02:17:03.375Z,29.20
2019-03-31T02:18:03.370Z,26.90
2019-03-31T02:19:03.363Z,26.60
2019-03-31T02:20:03.367Z,27.90
2019-03-31T02:21:03.354Z,25.30
2019-03-31T02:22:03.361Z,25.50
2019-03-31T02:23:03.356Z,24.20
2019-03-31T02:24:03.335Z,24.40
2019-03-31T02:25:03.352Z,27.00
2019-03-31T02:26:03.335Z,29.30
2019-03-31T02:27:03.318Z,31.70
2019-03-31T02:28:03.311Z,30.90
2019-03-31T02:29:03.308Z,31.00
2019-03-31T02:30:03.300Z,31.30
2019-03-31T02:31:03.303Z,32.40
2019-03-31T02:32:22.041Z,31.60
2019-03-31T02:33:03.293Z,31.00
2019-03-31T02:34:03.292Z,29.80
2019-03-31T02:35:03.310Z,31.60
2019-03-31T02:36:03.293Z,31.20
2019-03-31T02:37:03.263Z,32.20
2019-03-31T02:38:03.265Z,32.60
2019-03-31T02:39:03.253Z,33.20
2019-03-31T02:40:03.241Z,32.90
2019-03-31T02:41:03.245Z,32.20
2019-03-31T02:42:03.255Z,34.10
2019-03-31T02:43:03.456Z,34.70
2019-03-31T02:44:03.231Z,34.90
2019-03-31T02:45:03.210Z,33.20
2019-03-31T02:46:03.244Z,31.20
2019-03-31T02:47:03.231Z,31.10
2019-03-31T02:48:03.265Z,31.20
2019-03-31T02:49:03.197Z,26.50
2019-03-31T02:50:03.189Z,27.30
2019-03-31T02:51:03.175Z,30.80
2019-03-31T02:52:03.194Z,31.90
2019-03-31T02:53:03.168Z,33.60
2019-03-31T02:54:03.181Z,28.90
2019-03-31T02:55:03.167Z,28.70
2019-03-31T02:56:03.167Z,32.40
2019-03-31T02:57:03.145Z,33.40
2019-03-31T02:58:03.152Z,33.40
2019-03-31T02:59:03.161Z,32.90
2019-03-31T03:00:03.144Z,34.10
2019-03-31T03:01:03.120Z,34.50
2019-03-31T03:02:03.161Z,33.50
2019-03-31T03:03:03.141Z,32.60
2019-03-31T03:04:03.112Z,33.70
2019-03-31T03:05:17.959Z,32.20
2019-03-31T03:06:03.107Z,31.60
2019-03-31T03:07:03.091Z,30.20
2019-03-31T03:08:03.085Z,30.10
2019-03-31T03:09:03.083Z,28.80
2019-03-31T03:10:03.091Z,29.10
2019-03-31T03:11:03.058Z,29.70
2019-03-31T03:12:03.061Z,31.20
2019-03-31T03:13:03.085Z,33.30
2019-03-31T03:14:03.060Z,34.10
2019-03-31T03:15:03.046Z,33.60
2019-03-31T03:16:03.053Z,32.30
2019-03-31T03:17:03.250Z,27.20
2019-03-31T03:18:03.021Z,30.20
2019-03-31T03:19:03.018Z,29.90
2019-03-31T03:20:03.033Z,31.80
2019-03-31T03:21:03.205Z,32.10
2019-03-31T03:22:03.016Z,33.10
2019-03-31T03:23:03.007Z,33.50
2019-03-31T03:24:03.000Z,34.00
2019-03-31T03:25:03.009Z,32.20
2019-03-31T03:26:02.983Z,33.10
2019-03-31T03:27:02.983Z,33.70
2019-03-31T03:28:02.974Z,33.30
2019-03-31T03:29:02.969Z,32.40
2019-03-31T03:30:02.998Z,30.70
2019-03-31T03:31:03.193Z,31.40
2019-03-31T03:32:03.179Z,32.40
2019-03-31T03:33:16.300Z,34.30
2019-03-31T03:34:02.979Z,36.60
2019-03-31T03:35:02.951Z,36.60
2019-03-31T03:36:02.920Z,34.50
2019-03-31T03:37:02.979Z,34.90
2019-03-31T03:38:02.906Z,35.50
2019-03-31T03:39:03.103Z,33.70
2019-03-31T03:40:02.913Z,32.80
2019-03-31T03:41:02.909Z,34.40
2019-03-31T03:42:03.105Z,32.30
2019-03-31T03:43:02.886Z,29.50
2019-03-31T03:44:03.019Z,31.30
2019-03-31T03:45:02.881Z,29.30
2019-03-31T03:46:02.893Z,31.70
2019-03-31T03:47:02.869Z,34.00
2019-03-31T03:48:02.869Z,35.20
2019-03-31T03:49:03.061Z,36.50
2019-03-31T03:50:02.875Z,35.70
2019-03-31T03:51:02.843Z,36.20
2019-03-31T03:52:02.862Z,45.90
2019-03-31T03:53:02.835Z,43.60
2019-03-31T03:54:02.840Z,41.10
2019-03-31T03:55:02.816Z,42.20
2019-03-31T03:56:02.801Z,42.40
2019-03-31T03:57:02.803Z,46.40
2019-03-31T03:58:03.006Z,46.50
2019-03-31T03:59:02.989Z,57.70
2019-03-31T04:00:02.791Z,60.40
2019-03-31T04:01:02.772Z,65.10
2019-03-31T04:02:02.772Z,65.00
2019-03-31T04:03:02.770Z,69.40
2019-03-31T04:04:02.971Z,64.30
2019-03-31T04:05:02.968Z,50.80
2019-03-31T04:06:02.765Z,55.60
2019-03-31T04:07:02.739Z,46.00
2019-03-31T04:08:02.725Z,42.10
2019-03-31T04:09:02.763Z,45.80
2019-03-31T04:10:02.936Z,51.40
2019-03-31T04:11:02.747Z,56.30
2019-03-31T04:12:02.738Z,58.70
2019-03-31T04:13:02.695Z,58.30
2019-03-31T04:14:02.892Z,63.40
2019-03-31T04:15:02.698Z,71.90
2019-03-31T04:16:02.679Z,65.10
2019-03-31T04:17:02.689Z,65.70
2019-03-31T04:18:02.689Z,80.60
2019-03-31T04:19:02.690Z,77.20
2019-03-31T04:20:02.667Z,88.60
2019-03-31T04:21:02.859Z,89.10
2019-03-31T04:22:02.667Z,91.50
2019-03-31T04:23:02.644Z,83.10
2019-03-31T04:24:02.814Z,83.60
2019-03-31T04:25:02.634Z,87.70
2019-03-31T04:26:02.619Z,93.20
2019-03-31T04:27:02.831Z,95.60
2019-03-31T04:28:02.618Z,87.10
2019-03-31T04:29:02.624Z,90.70
2019-03-31T04:30:02.614Z,84.30
2019-03-31T04:31:02.592Z,88.00
2019-03-31T04:32:02.805Z,85.90
2019-03-31T04:33:02.596Z,89.40
2019-03-31T04:34:02.579Z,87.30
2019-03-31T04:35:02.591Z,86.80
2019-03-31T04:36:02.573Z,85.30
2019-03-31T04:37:02.566Z,89.30
2019-03-31T04:38:02.549Z,97.40
2019-03-31T04:39:02.762Z,98.40
2019-03-31T04:40:02.747Z,89.80
2019-03-31T04:41:02.548Z,90.20
2019-03-31T04:42:02.534Z,87.70
2019-03-31T04:43:02.528Z,94.60
2019-03-31T04:44:02.547Z,88.60
2019-03-31T04:45:02.721Z,91.50
2019-03-31T04:46:02.507Z,90.60
2019-03-31T04:47:02.520Z,88.10
2019-03-31T04:48:02.502Z,89.10
2019-03-31T04:49:02.689Z,85.00
2019-03-31T04:50:02.487Z,88.30
2019-03-31T04:51:02.712Z,92.00
2019-03-31T04:52:02.488Z,97.10
2019-03-31T04:53:02.670Z,94.30
2019-03-31T04:54:02.489Z,92.40
2019-03-31T04:55:02.458Z,90.50
2019-03-31T04:56:02.657Z,91.00
2019-03-31T04:57:04.490Z,91.70
2019-03-31T04:58:02.433Z,93.60
2019-03-31T04:59:02.435Z,89.60
2019-03-31T05:00:02.441Z,89.50
2019-03-31T05:01:02.622Z,90.50
2019-03-31T05:02:02.417Z,93.30
2019-03-31T05:03:02.441Z,90.20
2019-03-31T05:04:05.146Z,91.50
2019-03-31T05:05:02.416Z,89.80
2019-03-31T05:06:02.667Z,86.30
2019-03-31T05:07:02.411Z,89.20
2019-03-31T05:08:02.389Z,90.00
2019-03-31T05:09:02.377Z,93.10
2019-03-31T05:10:02.376Z,87.80
2019-03-31T05:11:02.370Z,91.20
2019-03-31T05:12:02.384Z,83.70
2019-03-31T05:13:02.353Z,84.00
2019-03-31T05:14:02.349Z,88.70
2019-03-31T05:15:02.339Z,93.30
2019-03-31T05:16:02.372Z,90.40
2019-03-31T05:17:02.343Z,92.80
2019-03-31T05:18:02.323Z,90.30
2019-03-31T05:19:02.316Z,89.20
2019-03-31T05:20:02.315Z,86.10
2019-03-31T05:21:02.309Z,88.70
2019-03-31T05:22:02.327Z,86.40
2019-03-31T05:23:02.305Z,93.80
2019-03-31T05:24:02.499Z,92.70
2019-03-31T05:25:02.302Z,91.30
2019-03-31T05:26:02.318Z,88.30
2019-03-31T05:27:02.515Z,86.40
2019-03-31T05:28:02.270Z,88.80
2019-03-31T05:29:02.266Z,88.00
2019-03-31T05:30:02.258Z,85.70
2019-03-31T05:31:02.461Z,88.60
2019-03-31T05:32:02.261Z,87.80
2019-03-31T05:33:02.449Z,88.40
2019-03-31T05:34:02.264Z,84.00
2019-03-31T05:35:02.460Z,91.80
2019-03-31T05:36:02.238Z,85.40
2019-03-31T05:37:02.220Z,82.60
2019-03-31T05:38:02.215Z,80.40
2019-03-31T05:39:02.221Z,83.90
2019-03-31T05:40:02.235Z,83.90
2019-03-31T05:41:02.209Z,84.70
2019-03-31T05:42:02.198Z,79.00
2019-03-31T05:43:02.199Z,92.40
2019-03-31T05:44:05.969Z,83.00
2019-03-31T05:45:02.380Z,82.90
2019-03-31T05:46:02.203Z,79.10
2019-03-31T05:47:02.185Z,79.80
2019-03-31T05:48:02.164Z,80.80
2019-03-31T05:49:02.176Z,83.60
2019-03-31T05:50:02.151Z,86.30
2019-03-31T05:51:02.153Z,76.90
2019-03-31T05:52:02.138Z,85.20
2019-03-31T05:53:02.132Z,82.70
2019-03-31T05:54:02.133Z,80.90
2019-03-31T05:55:02.136Z,80.10
2019-03-31T05:56:02.130Z,81.60
2019-03-31T05:57:02.342Z,83.90
2019-03-31T05:58:02.115Z,90.70
2019-03-31T05:59:02.115Z,86.30
2019-03-31T06:00:02.109Z,78.60
2019-03-31T06:01:02.115Z,80.70
2019-03-31T06:02:02.089Z,83.90
2019-03-31T06:03:02.111Z,86.50
2019-03-31T06:04:02.088Z,84.40
2019-03-31T06:05:02.074Z,83.40
2019-03-31T06:06:02.273Z,85.40
2019-03-31T06:07:02.070Z,82.80
2019-03-31T06:08:02.270Z,83.40
2019-03-31T06:09:02.054Z,86.60
2019-03-31T06:10:02.066Z,86.50
2019-03-31T06:11:02.258Z,86.30
2019-03-31T06:12:02.272Z,85.80
2019-03-31T06:13:02.036Z,82.70
2019-03-31T06:14:02.030Z,86.70
2019-03-31T06:15:02.027Z,82.30
2019-03-31T06:16:02.220Z,80.10
2019-03-31T06:17:02.027Z,85.20
2019-03-31T06:19:02.019Z,80.80
2019-03-31T06:20:02.013Z,81.30
2019-03-31T06:21:01.991Z,87.00
2019-03-31T06:22:02.192Z,86.70
2019-03-31T06:23:02.020Z,80.80
2019-03-31T06:24:01.985Z,81.60
2019-03-31T06:25:01.982Z,80.20
2019-03-31T06:26:02.198Z,83.90
2019-03-31T06:27:01.963Z,84.50
2019-03-31T06:28:01.975Z,85.60
2019-03-31T06:29:01.964Z,76.10
2019-03-31T06:30:01.962Z,81.30
2019-03-31T06:31:01.948Z,78.30
2019-03-31T06:32:01.956Z,80.50
2019-03-31T06:33:02.156Z,82.00
2019-03-31T06:34:01.937Z,83.00
2019-03-31T06:36:01.918Z,84.80
2019-03-31T06:37:01.947Z,81.10
2019-03-31T06:38:01.919Z,86.60
2019-03-31T06:39:01.920Z,78.60
2019-03-31T06:40:01.921Z,82.70
2019-03-31T06:41:01.903Z,80.60
2019-03-31T06:42:01.895Z,83.70
2019-03-31T06:43:01.889Z,81.20
2019-03-31T06:44:01.880Z,83.50
2019-03-31T06:45:01.906Z,81.10
2019-03-31T06:46:01.890Z,79.90
2019-03-31T06:47:01.870Z,77.30
2019-03-31T06:48:01.895Z,82.00
2019-03-31T06:49:01.915Z,82.90
2019-03-31T06:50:01.878Z,78.60
2019-03-31T06:51:01.863Z,78.30
2019-03-31T06:52:01.849Z,80.40
2019-03-31T06:53:01.851Z,80.10
2019-03-31T06:54:01.837Z,84.30
2019-03-31T06:55:01.833Z,87.30
2019-03-31T06:56:01.839Z,85.30
2019-03-31T06:57:01.826Z,80.90
2019-03-31T06:58:02.029Z,83.40
2019-03-31T06:59:01.811Z,79.00
2019-03-31T07:00:02.025Z,83.50
2019-03-31T07:01:01.810Z,78.20
2019-03-31T07:02:03.164Z,81.30
2019-03-31T07:03:01.813Z,80.30
2019-03-31T07:04:01.797Z,82.90
2019-03-31T07:05:02.114Z,81.60
2019-03-31T07:06:01.984Z,87.90
2019-03-31T07:07:01.794Z,83.50
2019-03-31T07:08:01.773Z,82.60
2019-03-31T07:09:01.765Z,86.60
2019-03-31T07:10:01.826Z,81.80
2019-03-31T07:11:01.780Z,81.90
2019-03-31T07:12:01.772Z,79.10
2019-03-31T07:13:01.781Z,82.50
2019-03-31T07:14:01.801Z,84.80
2019-03-31T07:15:01.765Z,84.10
2019-03-31T07:16:01.787Z,82.40
2019-03-31T07:17:01.751Z,80.60
2019-03-31T07:18:01.744Z,82.50
2019-03-31T07:19:01.735Z,80.00
2019-03-31T07:20:01.724Z,82.70
2019-03-31T07:21:01.706Z,81.40
2019-03-31T07:22:01.726Z,76.30
2019-03-31T07:23:01.718Z,79.20
2019-03-31T07:24:01.695Z,81.00
2019-03-31T07:25:01.699Z,78.90
2019-03-31T07:26:01.689Z,81.10
2019-03-31T07:27:01.692Z,73.70
2019-03-31T07:28:01.673Z,74.50
2019-03-31T07:29:01.699Z,74.90
2019-03-31T07:30:01.673Z,79.10
2019-03-31T07:31:01.673Z,78.10
2019-03-31T07:32:01.655Z,73.60
2019-03-31T07:33:01.642Z,76.20
2019-03-31T07:34:01.635Z,70.90
2019-03-31T07:35:01.626Z,76.00
2019-03-31T07:36:01.627Z,80.30
2019-03-31T07:37:01.620Z,76.70
2019-03-31T07:38:01.613Z,79.00
2019-03-31T07:39:01.612Z,77.50
2019-03-31T07:40:01.726Z,82.60
2019-03-31T07:41:12.485Z,77.50
2019-03-31T07:42:02.118Z,77.30
2019-03-31T07:43:01.618Z,81.90
2019-03-31T07:44:01.610Z,81.10
2019-03-31T07:45:01.580Z,75.10
2019-03-31T07:46:01.573Z,77.50
2019-03-31T07:47:01.585Z,77.70
2019-03-31T07:48:01.573Z,75.40
2019-03-31T07:49:01.595Z,80.10
2019-03-31T07:50:01.561Z,81.20
2019-03-31T07:51:01.751Z,79.30
2019-03-31T07:52:01.747Z,77.50
2019-03-31T07:53:01.733Z,79.80
2019-03-31T07:54:01.735Z,80.10
2019-03-31T07:55:01.759Z,77.80
2019-03-31T07:56:01.525Z,81.70
2019-03-31T07:57:01.521Z,81.70
2019-03-31T07:58:01.548Z,81.50
2019-03-31T07:59:01.507Z,82.80
2019-03-31T08:00:01.804Z,79.90
2019-03-31T08:01:01.514Z,77.60
2019-03-31T08:02:01.503Z,83.00
2019-03-31T08:03:01.483Z,79.60
2019-03-31T08:04:01.599Z,79.40
2019-03-31T08:05:01.521Z,82.00
2019-03-31T08:06:01.577Z,87.60
2019-03-31T08:07:01.595Z,80.50
2019-03-31T08:08:01.553Z,77.40
2019-03-31T08:09:01.462Z,82.10
2019-03-31T08:10:01.534Z,78.70
2019-03-31T08:11:01.481Z,84.30
2019-03-31T08:12:01.449Z,81.70
2019-03-31T08:13:01.528Z,86.70
2019-03-31T08:14:01.462Z,86.60
2019-03-31T08:15:01.488Z,86.30
2019-03-31T08:16:01.466Z,84.10
2019-03-31T08:17:01.430Z,81.80
2019-03-31T08:18:01.495Z,85.10
2019-03-31T08:19:01.429Z,87.60
2019-03-31T08:20:01.409Z,83.70
2019-03-31T08:21:01.415Z,85.60
2019-03-31T08:22:01.381Z,80.70
2019-03-31T08:23:01.404Z,82.10
2019-03-31T08:24:01.404Z,85.30
2019-03-31T08:25:01.400Z,84.50
2019-03-31T08:26:01.391Z,86.10
2019-03-31T08:27:01.357Z,89.00
2019-03-31T08:28:01.426Z,89.20
2019-03-31T08:29:01.341Z,84.70
2019-03-31T08:30:01.518Z,89.10
2019-03-31T08:31:01.368Z,94.80
2019-03-31T08:32:01.368Z,88.00
2019-03-31T08:33:01.387Z,88.30
2019-03-31T08:34:01.327Z,89.00
2019-03-31T08:35:01.429Z,88.00
2019-03-31T08:36:01.319Z,93.70
2019-03-31T08:37:01.303Z,92.00
2019-03-31T08:38:01.289Z,87.90
2019-03-31T08:39:01.295Z,89.70
2019-03-31T08:40:01.282Z,94.80
2019-03-31T08:41:01.266Z,93.90
2019-03-31T08:42:01.295Z,95.10
2019-03-31T08:43:01.454Z,95.50
2019-03-31T08:44:01.314Z,97.00
2019-03-31T08:45:01.267Z,93.30
2019-03-31T08:46:01.253Z,90.20
2019-03-31T08:47:01.237Z,93.60
2019-03-31T08:48:01.250Z,92.30
2019-03-31T08:49:01.302Z,88.30
2019-03-31T08:50:02.311Z,91.00
2019-03-31T08:51:01.204Z,89.60
2019-03-31T08:52:01.197Z,88.70
2019-03-31T08:53:01.199Z,87.40
2019-03-31T08:54:01.184Z,91.30
2019-03-31T08:55:01.243Z,88.50
2019-03-31T08:56:01.200Z,90.40
2019-03-31T08:57:01.169Z,86.20
2019-03-31T08:58:01.198Z,85.80
2019-03-31T08:59:01.190Z,86.30
2019-03-31T09:00:01.156Z,88.30
2019-03-31T09:01:01.163Z,91.80
2019-03-31T09:02:03.293Z,86.70
2019-03-31T09:03:01.235Z,88.10
2019-03-31T09:04:01.175Z,82.50
2019-03-31T09:05:01.134Z,90.20
2019-03-31T09:06:02.563Z,83.70
2019-03-31T09:07:01.111Z,80.50
2019-03-31T09:08:01.135Z,83.20
2019-03-31T09:09:01.176Z,79.60
2019-03-31T09:10:01.141Z,76.80
2019-03-31T09:11:01.103Z,81.70
2019-03-31T09:12:01.114Z,74.10
2019-03-31T09:13:01.082Z,80.20
2019-03-31T09:14:01.094Z,75.80
2019-03-31T09:15:01.151Z,76.80
2019-03-31T09:16:01.092Z,77.80
2019-03-31T09:17:01.096Z,74.90
2019-03-31T09:18:01.066Z,71.00
2019-03-31T09:19:01.053Z,74.50
2019-03-31T09:20:01.068Z,76.60
2019-03-31T09:21:01.039Z,80.00
2019-03-31T09:22:01.088Z,75.40
2019-03-31T09:23:01.102Z,73.70
2019-03-31T09:24:01.028Z,67.80
2019-03-31T09:25:01.033Z,70.20
2019-03-31T09:26:01.091Z,74.20
2019-03-31T09:27:01.093Z,73.20
2019-03-31T09:28:01.026Z,73.20
2019-03-31T09:29:01.132Z,72.20
2019-03-31T09:30:01.073Z,74.60
2019-03-31T09:31:00.999Z,73.80
2019-03-31T09:32:01.120Z,76.20
2019-03-31T09:33:00.989Z,73.00
2019-03-31T09:34:01.008Z,71.30
2019-03-31T09:35:01.001Z,75.50
2019-03-31T09:36:15.073Z,68.80
2019-03-31T09:37:00.987Z,69.00
2019-03-31T09:38:00.960Z,69.70
2019-03-31T09:39:00.956Z,69.00
2019-03-31T09:40:00.954Z,73.40
2019-03-31T09:41:00.947Z,73.50
2019-03-31T09:42:00.963Z,69.40
2019-03-31T09:43:00.958Z,70.00
2019-03-31T09:44:00.976Z,69.10
2019-03-31T09:45:00.923Z,74.70
2019-03-31T09:46:00.912Z,70.60
2019-03-31T09:47:00.901Z,69.80
2019-03-31T09:48:00.929Z,69.20
2019-03-31T09:49:00.912Z,67.90
2019-03-31T09:50:00.897Z,70.10
2019-03-31T09:51:00.874Z,69.30
2019-03-31T09:52:00.886Z,64.90
2019-03-31T09:53:00.954Z,66.50
2019-03-31T09:54:00.886Z,69.50
2019-03-31T09:55:00.869Z,69.50
2019-03-31T09:56:00.849Z,71.00
2019-03-31T09:57:00.876Z,68.20
2019-03-31T09:58:00.874Z,73.30
2019-03-31T09:59:00.863Z,73.30
2019-03-31T10:00:00.848Z,73.10
2019-03-31T10:01:00.842Z,68.30
2019-03-31T10:02:00.865Z,65.00
2019-03-31T10:03:01.264Z,66.90
2019-03-31T10:04:00.835Z,64.50
2019-03-31T10:05:00.865Z,68.40
2019-03-31T10:06:10.668Z,67.00
2019-03-31T10:07:00.831Z,70.20
2019-03-31T10:08:00.786Z,62.00
2019-03-31T10:09:00.792Z,66.90
2019-03-31T10:10:00.824Z,66.30
2019-03-31T10:11:02.789Z,64.20
2019-03-31T10:12:00.822Z,64.00
2019-03-31T10:13:00.798Z,66.50
2019-03-31T10:14:00.750Z,62.60
2019-03-31T10:15:00.760Z,63.40
2019-03-31T10:16:00.765Z,61.50
2019-03-31T10:17:00.791Z,68.30
2019-03-31T10:18:00.785Z,63.20
2019-03-31T10:19:00.731Z,62.70
2019-03-31T10:20:00.710Z,60.20
2019-03-31T10:21:00.701Z,63.00
2019-03-31T10:22:00.701Z,63.90
2019-03-31T10:23:00.695Z,64.80
2019-03-31T10:24:00.908Z,66.20
2019-03-31T10:25:00.779Z,62.70
2019-03-31T10:26:00.709Z,66.00
2019-03-31T10:27:00.688Z,60.10
2019-03-31T10:28:00.741Z,59.50
2019-03-31T10:29:00.669Z,62.90
2019-03-31T10:30:00.722Z,60.30
2019-03-31T10:31:00.824Z,61.90
2019-03-31T10:32:00.734Z,58.80
2019-03-31T10:33:00.756Z,56.30
2019-03-31T10:34:00.630Z,54.80
2019-03-31T10:35:00.651Z,56.80
2019-03-31T10:36:00.860Z,59.90
2019-03-31T10:37:00.811Z,51.80
2019-03-31T10:38:00.625Z,52.80
2019-03-31T10:39:00.616Z,53.10
2019-03-31T10:40:00.599Z,53.20
2019-03-31T10:41:00.600Z,54.20
2019-03-31T10:42:00.811Z,52.00
2019-03-31T10:43:00.580Z,53.00
2019-03-31T10:44:00.596Z,52.70
2019-03-31T10:45:00.566Z,51.00
2019-03-31T10:46:00.573Z,50.20
2019-03-31T10:47:00.561Z,48.00
2019-03-31T10:48:00.568Z,48.10
2019-03-31T10:49:00.549Z,49.90
2019-03-31T10:50:00.540Z,50.70
2019-03-31T10:51:00.568Z,49.60
2019-03-31T10:52:00.539Z,51.80
2019-03-31T10:53:00.524Z,53.30
2019-03-31T10:54:00.518Z,48.40
2019-03-31T10:55:00.534Z,49.20
2019-03-31T10:56:00.726Z,48.80
2019-03-31T10:57:00.525Z,50.70
2019-03-31T10:58:00.503Z,51.30
2019-03-31T10:59:00.488Z,50.90
2019-03-31T11:00:00.506Z,48.30
2019-03-31T11:01:00.474Z,46.20
2019-03-31T11:02:00.476Z,48.80
2019-03-31T11:03:00.462Z,45.90
2019-03-31T11:04:00.469Z,46.00
2019-03-31T11:05:00.452Z,46.40
2019-03-31T11:06:00.446Z,46.70
2019-03-31T11:07:03.533Z,46.10
2019-03-31T11:08:00.436Z,44.40
2019-03-31T11:09:00.537Z,44.30
2019-03-31T11:10:00.427Z,44.40
2019-03-31T11:11:00.622Z,47.40
2019-03-31T11:12:00.419Z,41.60
2019-03-31T11:13:00.418Z,41.30
2019-03-31T11:14:00.623Z,38.90
2019-03-31T11:15:00.429Z,39.50
2019-03-31T11:16:00.397Z,39.50
2019-03-31T11:17:00.394Z,39.50
2019-03-31T11:18:00.585Z,40.20
2019-03-31T11:19:00.600Z,41.90
2019-03-31T11:20:00.959Z,35.50
2019-03-31T11:21:00.379Z,35.50
2019-03-31T11:22:00.368Z,35.90
2019-03-31T11:23:00.354Z,38.60
2019-03-31T11:24:00.350Z,32.70
2019-03-31T11:25:00.376Z,32.00
2019-03-31T11:26:00.350Z,29.30
2019-03-31T11:27:00.338Z,30.70
2019-03-31T11:28:00.366Z,32.20
2019-03-31T11:29:00.341Z,29.90
2019-03-31T11:30:00.522Z,32.70
2019-03-31T11:31:00.327Z,31.80
2019-03-31T11:32:00.309Z,33.20
2019-03-31T11:33:00.309Z,30.30
2019-03-31T11:34:00.299Z,27.40
2019-03-31T11:35:00.497Z,30.90
2019-03-31T11:36:00.286Z,25.20
2019-03-31T11:37:12.937Z,27.50
2019-03-31T11:38:00.297Z,27.20
2019-03-31T11:39:00.298Z,29.00
2019-03-31T11:40:00.405Z,30.20
2019-03-31T11:41:00.265Z,28.60
2019-03-31T11:42:00.255Z,30.30
2019-03-31T11:43:00.252Z,26.10
2019-03-31T11:44:00.247Z,25.60
2019-03-31T11:45:00.420Z,28.10
2019-03-31T11:46:00.232Z,27.80
2019-03-31T11:47:00.235Z,28.30
2019-03-31T11:48:00.236Z,25.20
2019-03-31T11:49:00.236Z,27.20
2019-03-31T11:50:00.493Z,26.60
2019-03-31T11:51:00.480Z,24.80
2019-03-31T11:52:00.215Z,23.70
2019-03-31T11:53:00.222Z,26.10
2019-03-31T11:54:00.203Z,25.80
2019-03-31T11:55:00.277Z,26.00
2019-03-31T11:56:00.190Z,26.30
2019-03-31T11:57:00.380Z,25.60
2019-03-31T11:58:00.171Z,24.20
2019-03-31T11:59:00.170Z,25.00
2019-03-31T12:00:00.409Z,24.50
2019-03-31T12:01:00.167Z,25.40
2019-03-31T12:02:00.157Z,22.60
2019-03-31T12:03:00.353Z,20.80
2019-03-31T12:04:00.139Z,23.20
2019-03-31T12:05:00.399Z,23.10
2019-03-31T12:06:00.137Z,22.70
2019-03-31T12:07:00.143Z,21.90
2019-03-31T12:08:00.148Z,24.10
2019-03-31T12:09:00.125Z,24.00
2019-03-31T12:10:00.359Z,21.70
2019-03-31T12:11:00.112Z,25.00
2019-03-31T12:12:00.111Z,23.60
2019-03-31T12:13:00.093Z,23.20
2019-03-31T12:14:00.094Z,24.10
2019-03-31T12:15:01.068Z,22.70
2019-03-31T12:16:00.084Z,24.10
2019-03-31T12:17:00.140Z,26.50
2019-03-31T12:18:00.082Z,22.50
2019-03-31T12:19:00.111Z,24.90
2019-03-31T12:20:00.102Z,24.00
2019-03-31T12:21:00.051Z,22.20
2019-03-31T12:22:00.051Z,21.60
2019-03-31T12:23:00.043Z,21.90
2019-03-31T12:24:00.081Z,23.00
2019-03-31T12:25:00.029Z,22.20
2019-03-31T12:26:00.037Z,22.00
2019-03-31T12:27:00.032Z,24.80
2019-03-31T12:28:00.034Z,23.50
2019-03-31T12:29:00.041Z,21.10
2019-03-31T12:30:00.001Z,20.40
2019-03-31T12:31:00.005Z,20.80
2019-03-31T12:31:59.993Z,21.10
2019-03-31T12:33:00.211Z,22.80
2019-03-31T12:33:59.987Z,21.00
2019-03-31T12:34:59.975Z,23.00
2019-03-31T12:36:00.180Z,22.60
2019-03-31T12:36:59.966Z,22.70
2019-03-31T12:37:59.991Z,22.80
2019-03-31T12:38:59.965Z,22.90
2019-03-31T12:39:59.955Z,20.70
2019-03-31T12:40:59.947Z,21.30
2019-03-31T12:41:59.960Z,24.80
2019-03-31T12:42:59.944Z,21.00
2019-03-31T12:43:59.938Z,25.30
2019-03-31T12:44:59.950Z,21.60
2019-03-31T12:45:59.937Z,19.90
2019-03-31T12:46:59.942Z,18.50
2019-03-31T12:48:01.389Z,20.80
2019-03-31T12:48:59.908Z,21.90
2019-03-31T12:49:59.910Z,22.30
2019-03-31T12:50:59.924Z,21.80
2019-03-31T12:51:59.918Z,21.10
2019-03-31T12:52:59.909Z,21.50
2019-03-31T12:53:59.887Z,18.60